createdAt,value
2023-11-23T00:14:39.988Z,295.03
2023-11-23T00:30:04.999Z,296.98
2023-11-23T00:45:29.953Z,297.79
2023-11-23T01:00:55.991Z,298.02
2023-11-23T01:16:20.895Z,296.66
2023-11-23T01:31:46.939Z,295.55
2023-11-23T01:47:12.933Z,292.62
2023-11-23T02:02:37.943Z,289.72
2023-11-23T02:18:03.003Z,289.00
2023-11-23T02:33:28.011Z,291.31
2023-11-23T02:48:52.925Z,292.01
2023-11-23T03:04:17.910Z,289.84
2023-11-23T03:19:43.865Z,292.92
2023-11-23T03:35:08.890Z,293.77
2023-11-23T03:50:33.866Z,292.84
2023-11-23T04:05:58.956Z,291.56
2023-11-23T04:21:23.797Z,290.41
2023-11-23T04:36:49.781Z,289.73
2023-11-23T04:52:15.734Z,290.15
2023-11-23T05:07:40.845Z,290.78
2023-11-23T05:23:05.767Z,291.62
2023-11-23T05:38:30.766Z,289.72
2023-11-23T05:53:55.735Z,289.88
2023-11-23T06:09:20.820Z,290.94
2023-11-23T06:24:45.761Z,288.75
2023-11-23T06:40:10.712Z,288.53
2023-11-23T06:55:35.898Z,288.54
2023-11-23T07:11:00.739Z,288.67
2023-11-23T07:26:25.698Z,287.66
2023-11-23T07:41:50.695Z,285.45
2023-11-23T07:57:15.661Z,285.22
2023-11-23T08:12:41.711Z,285.80
2023-11-23T08:28:06.680Z,286.94
2023-11-23T08:43:32.645Z,287.40
2023-11-23T08:58:58.644Z,287.70
2023-11-23T09:14:24.675Z,287.70
2023-11-23T09:29:50.658Z,287.69
2023-11-23T09:45:16.688Z,287.15
2023-11-23T10:00:42.668Z,288.25
2023-11-23T10:16:07.687Z,288.51
2023-11-23T10:31:33.535Z,289.75
2023-11-23T10:46:58.584Z,293.09
2023-11-23T11:02:24.527Z,295.78
2023-11-23T11:17:49.687Z,299.09
2023-11-23T11:33:15.816Z,302.02
2023-11-23T11:48:41.636Z,303.94
2023-11-23T12:04:07.642Z,306.63
2023-11-23T12:19:33.501Z,309.16
2023-11-23T12:34:59.487Z,310.91
2023-11-23T12:50:25.466Z,313.50
2023-11-23T13:05:51.444Z,316.56
2023-11-23T13:21:17.584Z,316.58
2023-11-23T13:36:43.521Z,318.40
2023-11-23T13:52:09.508Z,317.95
2023-11-23T14:07:35.398Z,318.76
2023-11-23T14:23:01.492Z,320.41
2023-11-23T14:39:02.361Z,319.06
2023-11-23T14:54:34.888Z,322.11
2023-11-23T15:09:54.468Z,321.60
2023-11-23T15:25:21.488Z,321.52
2023-11-23T15:40:47.565Z,320.30
2023-11-23T15:56:13.534Z,320.52
2023-11-23T16:11:39.520Z,323.99
2023-11-23T16:27:04.463Z,324.08
2023-11-23T16:42:29.462Z,324.63
2023-11-23T16:57:54.390Z,325.56
2023-11-23T17:13:20.465Z,323.86
2023-11-23T17:28:46.448Z,324.45
2023-11-23T17:44:12.434Z,322.91
2023-11-23T17:59:46.704Z,325.39
2023-11-23T18:15:03.508Z,326.04
2023-11-23T18:30:29.711Z,330.16
2023-11-23T18:45:56.442Z,330.92
2023-11-23T19:01:22.483Z,330.42
2023-11-23T19:16:48.501Z,332.88
2023-11-23T19:32:14.602Z,335.53
2023-11-23T19:47:40.436Z,335.00
2023-11-23T20:03:07.763Z,336.54
2023-11-23T20:19:12.351Z,339.28
2023-11-23T20:34:37.591Z,343.41
2023-11-23T20:50:02.449Z,344.25
2023-11-23T21:05:27.500Z,346.16
2023-11-23T21:20:52.470Z,347.89
2023-11-23T21:36:18.535Z,349.18
2023-11-23T21:51:43.497Z,349.52
2023-11-23T22:07:09.564Z,348.36
2023-11-23T22:22:35.440Z,347.96
2023-11-23T22:38:00.549Z,344.03
2023-11-23T22:53:25.450Z,348.50
2023-11-23T23:08:50.407Z,348.50
2023-11-23T23:24:15.452Z,351.86
2023-11-23T23:39:40.409Z,352.05
2023-11-23T23:55:05.442Z,351.46
